Upper Long Lake, Indiana
Current Conditions -  °F | °C
As of 4:55 PM on Thursday 27 Nov 2014 (Local Time) from KGWB Reporting Station
Light Snow Light Snow  
Wind Chill: 24°   Ceiling: 1700
Heat Index: 32°   Visibility: 4mi
Dew Point: 27°   Wind: 10mph
Humidity: 80%   Direction: 280°W
Pressure: 30.26"   Gusts: 16mph
Location:  41.3469°N, 85.4059°W
Report Text: KGWB 272155Z AUTO 28009G14KT 4SM -SN BKN017 OVC022 00/M03 A3026 RMK AO2
Loading
Personal Weather Stations






























Interactive Weather Map New forecast layout! Learn more

10-Day Weather Forecast

Advertisements
Track Severe Weather on mobile